Time;durP1;ratioP1;P1;durP2;ratioP2;P2;SDS_P1;SDS_P2;PMS_P1;PMS_P2;Temp;Humidity;BMP_temperature;BMP_pressure;BME280_temperature;BME280_humidity;BME280_pressure;Samples;Min_cycle;Max_cycle;Signal;HPM_P1;HPM_P2
2024/05/07 00:01:02;;;;;;;14.48;7.63;;;;;;;;;;5333284;26;20012;-61
2024/05/07 00:03:27;;;;;;;11.77;7.80;;;;;;;;;;5304011;26;20075;-62
2024/05/07 00:05:53;;;;;;;12.98;7.45;;;;;;;;;;5299829;26;20009;-61
2024/05/07 00:08:18;;;;;;;12.20;7.07;;;;;;;;;;5298457;26;20005;-61
2024/05/07 00:10:43;;;;;;;11.50;7.47;;;;;;;;;;5300020;26;20091;-61
2024/05/07 00:13:09;;;;;;;11.07;6.97;;;;;;;;;;5298690;26;20001;-61
2024/05/07 00:15:34;;;;;;;12.55;7.40;;;;;;;;;;5298832;26;20481;-61
2024/05/07 00:18:00;;;;;;;12.05;6.72;;;;;;;;;;5299217;26;20335;-61
2024/05/07 00:20:25;;;;;;;11.82;7.15;;;;;;;;;;5298672;26;20029;-61
2024/05/07 00:22:50;;;;;;;12.45;7.13;;;;;;;;;;5299465;27;20041;-61
2024/05/07 00:25:16;;;;;;;11.02;6.85;;;;;;;;;;5298429;26;20055;-61
2024/05/07 00:27:41;;;;;;;12.02;7.28;;;;;;;;;;5298867;26;20088;-61
2024/05/07 00:30:07;;;;;;;10.82;6.72;;;;;;;;;;5299620;26;20016;-61
2024/05/07 00:32:32;;;;;;;14.18;7.05;;;;;;;;;;5298514;26;20407;-61
2024/05/07 00:34:57;;;;;;;13.90;8.05;;;;;;;;;;5299776;27;20024;-61
2024/05/07 00:37:23;;;;;;;11.77;7.40;;;;;;;;;;5312731;26;20005;-61
2024/05/07 00:39:48;;;;;;;12.40;7.40;;;;;;;;;;5312279;26;20013;-61
2024/05/07 00:42:13;;;;;;;13.57;7.30;;;;;;;;;;5298332;26;20736;-61
2024/05/07 00:44:39;;;;;;;11.95;7.32;;;;;;;;;;5298707;26;20005;-61
2024/05/07 00:47:04;;;;;;;12.15;7.35;;;;;;;;;;5298944;26;20029;-61
2024/05/07 00:49:31;;;;;;;13.20;7.43;;;;;;;;;;5298558;26;20100;-62
2024/05/07 00:51:56;;;;;;;12.27;7.47;;;;;;;;;;5299442;26;19998;-61
2024/05/07 00:54:22;;;;;;;12.73;7.35;;;;;;;;;;5299262;26;20015;-61
2024/05/07 00:56:48;;;;;;;10.88;7.00;;;;;;;;;;5298603;26;19994;-61
2024/05/07 00:59:14;;;;;;;10.27;6.70;;;;;;;;;;5299095;26;20008;-61
2024/05/07 01:01:40;;;;;;;12.27;6.85;;;;;;;;;;5299105;26;20013;-62
2024/05/07 01:04:05;;;;;;;13.07;7.07;;;;;;;;;;5298051;26;20323;-61
2024/05/07 01:06:31;;;;;;;12.65;7.35;;;;;;;;;;5313394;26;21086;-61
2024/05/07 01:08:57;;;;;;;15.00;7.80;;;;;;;;;;5323364;26;20002;-62
2024/05/07 01:11:22;;;;;;;14.25;8.02;;;;;;;;;;5298764;26;20004;-62
2024/05/07 01:13:48;;;;;;;12.98;8.02;;;;;;;;;;5299208;27;20086;-62
2024/05/07 01:16:13;;;;;;;11.82;7.28;;;;;;;;;;5325051;26;20005;-61
2024/05/07 01:18:38;;;;;;;12.23;7.50;;;;;;;;;;5314913;26;19994;-61
2024/05/07 01:21:04;;;;;;;12.40;7.65;;;;;;;;;;5297676;26;20016;-61
2024/05/07 01:23:29;;;;;;;12.90;7.43;;;;;;;;;;5297807;26;20546;-61
2024/05/07 01:25:55;;;;;;;14.38;8.23;;;;;;;;;;5298591;27;19994;-61
2024/05/07 01:28:20;;;;;;;12.00;7.30;;;;;;;;;;5298805;26;20001;-61
2024/05/07 01:30:46;;;;;;;11.98;7.78;;;;;;;;;;5298910;26;19997;-61
2024/05/07 01:33:11;;;;;;;17.48;8.15;;;;;;;;;;5297549;26;20080;-62
2024/05/07 01:35:37;;;;;;;12.73;7.80;;;;;;;;;;5298463;26;20585;-61
2024/05/07 01:38:02;;;;;;;12.43;7.72;;;;;;;;;;5297929;27;20001;-61
2024/05/07 01:40:30;;;;;;;12.15;7.47;;;;;;;;;;5328495;26;20012;-61
2024/05/07 01:42:56;;;;;;;14.68;7.75;;;;;;;;;;5310588;26;19993;-61
2024/05/07 01:45:21;;;;;;;11.68;7.30;;;;;;;;;;5311621;26;20016;-61
2024/05/07 01:47:47;;;;;;;15.13;8.35;;;;;;;;;;5324065;26;20096;-61
2024/05/07 01:50:12;;;;;;;14.98;8.05;;;;;;;;;;5312059;26;20025;-61
2024/05/07 01:52:37;;;;;;;11.73;7.07;;;;;;;;;;5300027;26;19998;-61
2024/05/07 01:55:03;;;;;;;14.00;7.72;;;;;;;;;;5306269;26;19993;-61
2024/05/07 01:57:29;;;;;;;13.82;8.48;;;;;;;;;;5315865;26;20006;-62
2024/05/07 01:59:54;;;;;;;13.73;7.85;;;;;;;;;;5297784;26;20085;-61
2024/05/07 02:02:20;;;;;;;12.27;7.93;;;;;;;;;;5298564;26;20001;-61
2024/05/07 02:04:46;;;;;;;15.75;8.13;;;;;;;;;;5297333;26;20017;-62
2024/05/07 02:07:11;;;;;;;13.57;8.02;;;;;;;;;;5298599;26;20339;-61
2024/05/07 02:09:36;;;;;;;13.15;8.05;;;;;;;;;;5297148;26;20001;-61
2024/05/07 02:12:02;;;;;;;13.98;8.15;;;;;;;;;;5298300;26;19994;-61
2024/05/07 02:14:27;;;;;;;14.90;8.27;;;;;;;;;;5296753;26;19998;-61
2024/05/07 02:16:53;;;;;;;16.88;8.93;;;;;;;;;;5298679;26;20001;-61
2024/05/07 02:19:19;;;;;;;19.55;8.48;;;;;;;;;;5299829;26;20471;-61
2024/05/07 02:21:45;;;;;;;17.15;8.88;;;;;;;;;;5296979;26;20578;-62
2024/05/07 02:24:10;;;;;;;17.70;9.70;;;;;;;;;;5297773;26;20448;-61
2024/05/07 02:26:36;;;;;;;16.30;9.25;;;;;;;;;;5297397;26;20002;-61
2024/05/07 02:29:01;;;;;;;17.17;8.77;;;;;;;;;;5298042;26;20329;-61
2024/05/07 02:31:26;;;;;;;15.82;8.95;;;;;;;;;;5297657;26;20006;-61
2024/05/07 02:33:52;;;;;;;14.80;9.02;;;;;;;;;;5297439;26;19997;-62
2024/05/07 02:36:17;;;;;;;14.95;8.43;;;;;;;;;;5297642;26;20017;-61
2024/05/07 02:38:43;;;;;;;15.25;8.77;;;;;;;;;;5296895;26;20420;-61
2024/05/07 02:41:08;;;;;;;18.63;10.02;;;;;;;;;;5297466;26;20420;-61
2024/05/07 02:43:33;;;;;;;18.35;9.50;;;;;;;;;;5297571;26;20501;-61
2024/05/07 02:45:59;;;;;;;17.52;9.88;;;;;;;;;;5296817;26;20033;-61
2024/05/07 02:48:24;;;;;;;18.13;9.95;;;;;;;;;;5297333;26;20494;-61
2024/05/07 02:50:49;;;;;;;19.80;9.82;;;;;;;;;;5296816;26;20694;-61
2024/05/07 02:53:15;;;;;;;19.42;9.60;;;;;;;;;;5297126;26;20008;-61
2024/05/07 02:55:41;;;;;;;17.60;9.75;;;;;;;;;;5297644;26;20041;-61
2024/05/07 02:58:06;;;;;;;18.08;10.32;;;;;;;;;;5295804;27;19993;-61
2024/05/07 03:00:32;;;;;;;20.98;10.77;;;;;;;;;;5296529;26;20016;-61
2024/05/07 03:02:58;;;;;;;20.30;9.70;;;;;;;;;;5296272;26;20012;-61
2024/05/07 03:05:23;;;;;;;15.45;9.18;;;;;;;;;;5295944;26;20001;-61
2024/05/07 03:07:48;;;;;;;17.48;10.02;;;;;;;;;;5292770;26;20005;-62
2024/05/07 03:10:14;;;;;;;21.25;11.50;;;;;;;;;;5323613;26;19997;-61
2024/05/07 03:12:39;;;;;;;20.13;11.10;;;;;;;;;;5317473;26;20145;-61
2024/05/07 03:15:05;;;;;;;20.60;10.10;;;;;;;;;;5305897;26;20016;-61
2024/05/07 03:17:31;;;;;;;21.48;10.35;;;;;;;;;;5297140;26;20581;-61
2024/05/07 03:19:57;;;;;;;20.73;10.68;;;;;;;;;;5332282;26;19997;-61
2024/05/07 03:22:22;;;;;;;18.65;10.45;;;;;;;;;;5301878;26;20020;-61
2024/05/07 03:24:47;;;;;;;20.10;11.07;;;;;;;;;;5297335;26;20525;-61
2024/05/07 03:27:13;;;;;;;20.90;10.85;;;;;;;;;;5296593;26;20403;-61
2024/05/07 03:29:38;;;;;;;18.45;9.88;;;;;;;;;;5299470;26;19997;-61
2024/05/07 03:32:04;;;;;;;19.30;10.10;;;;;;;;;;5296413;26;20071;-61
2024/05/07 03:34:29;;;;;;;21.70;11.38;;;;;;;;;;5296567;26;20002;-61
2024/05/07 03:36:54;;;;;;;18.73;10.27;;;;;;;;;;5296251;26;20005;-61
2024/05/07 03:39:20;;;;;;;20.33;10.88;;;;;;;;;;5295768;26;20002;-61
2024/05/07 03:41:46;;;;;;;19.67;9.55;;;;;;;;;;5282845;26;20033;-62
2024/05/07 03:44:12;;;;;;;18.90;9.55;;;;;;;;;;5295882;27;19998;-61
2024/05/07 03:46:41;;;;;;;16.58;9.45;;;;;;;;;;5296203;26;20002;-61
2024/05/07 03:49:11;;;;;;;18.33;9.23;;;;;;;;;;5296423;26;19994;-61
2024/05/07 03:51:42;;;;;;;17.60;9.65;;;;;;;;;;5312768;26;19997;-61
2024/05/07 03:54:10;;;;;;;17.48;9.15;;;;;;;;;;5331118;26;19997;-61
2024/05/07 03:56:35;;;;;;;20.98;9.75;;;;;;;;;;5327399;26;19993;-61
2024/05/07 03:59:01;;;;;;;17.65;8.73;;;;;;;;;;5297688;27;20017;-61
2024/05/07 04:01:26;;;;;;;22.17;9.25;;;;;;;;;;5295894;26;20006;-61
2024/05/07 04:03:52;;;;;;;14.23;7.93;;;;;;;;;;5296270;26;20001;-61
2024/05/07 04:06:17;;;;;;;17.25;8.52;;;;;;;;;;5296736;26;20002;-61
2024/05/07 04:08:43;;;;;;;13.10;7.43;;;;;;;;;;5305483;26;20004;-61
2024/05/07 04:11:09;;;;;;;15.88;8.70;;;;;;;;;;5329851;26;20036;-61
2024/05/07 04:13:34;;;;;;;17.63;8.52;;;;;;;;;;5330134;26;20785;-61
2024/05/07 04:16:00;;;;;;;13.40;8.18;;;;;;;;;;5328878;26;19993;-61
2024/05/07 04:18:25;;;;;;;14.95;7.93;;;;;;;;;;5330343;26;20055;-61
2024/05/07 04:20:50;;;;;;;13.63;7.68;;;;;;;;;;5323707;26;20023;-61
2024/05/07 04:23:16;;;;;;;17.98;8.63;;;;;;;;;;5296373;26;20005;-61
2024/05/07 04:25:41;;;;;;;13.45;7.43;;;;;;;;;;5295688;26;20006;-61
2024/05/07 04:28:07;;;;;;;17.42;8.50;;;;;;;;;;5295874;26;20087;-61
2024/05/07 04:30:32;;;;;;;14.77;7.90;;;;;;;;;;5296285;26;20418;-61
2024/05/07 04:32:58;;;;;;;13.68;7.28;;;;;;;;;;5295204;26;20008;-61
2024/05/07 04:35:23;;;;;;;14.43;7.57;;;;;;;;;;5295329;26;20012;-61
2024/05/07 04:37:48;;;;;;;13.60;7.45;;;;;;;;;;5294590;27;20008;-61
2024/05/07 04:40:14;;;;;;;14.43;7.78;;;;;;;;;;5295171;26;20002;-61
2024/05/07 04:42:39;;;;;;;13.68;7.68;;;;;;;;;;5296817;26;19997;-61
2024/05/07 04:45:05;;;;;;;18.17;7.75;;;;;;;;;;5297828;26;20748;-61
2024/05/07 04:47:30;;;;;;;15.80;7.20;;;;;;;;;;5299096;26;20002;-61
2024/05/07 04:49:55;;;;;;;15.35;7.45;;;;;;;;;;5299043;27;20008;-61
2024/05/07 04:52:21;;;;;;;14.77;6.82;;;;;;;;;;5294661;26;20001;-61
2024/05/07 04:54:46;;;;;;;12.90;7.25;;;;;;;;;;5317243;26;20049;-61
2024/05/07 04:57:11;;;;;;;14.50;6.88;;;;;;;;;;5321861;26;20009;-61
2024/05/07 04:59:37;;;;;;;14.40;7.93;;;;;;;;;;5297816;26;20459;-61
2024/05/07 05:02:02;;;;;;;14.57;7.55;;;;;;;;;;5294033;27;20017;-61
2024/05/07 05:04:27;;;;;;;16.30;8.32;;;;;;;;;;5298931;26;20013;-61
2024/05/07 05:06:53;;;;;;;14.50;8.05;;;;;;;;;;5296197;27;19994;-62
2024/05/07 05:09:18;;;;;;;15.75;8.35;;;;;;;;;;5299064;26;20501;-61
2024/05/07 05:11:46;;;;;;;20.48;9.02;;;;;;;;;;5297571;26;20668;-61
2024/05/07 05:14:11;;;;;;;16.17;8.40;;;;;;;;;;5298904;27;20001;-61
2024/05/07 05:16:37;;;;;;;21.20;8.50;;;;;;;;;;5299354;26;20537;-61
2024/05/07 05:19:02;;;;;;;16.17;8.32;;;;;;;;;;5327907;26;20052;-61
2024/05/07 05:21:28;;;;;;;17.52;9.52;;;;;;;;;;5332934;26;20005;-61
2024/05/07 05:23:53;;;;;;;16.58;8.80;;;;;;;;;;5331545;26;20001;-61
2024/05/07 05:26:18;;;;;;;17.80;9.13;;;;;;;;;;5339270;26;20000;-61
2024/05/07 05:28:44;;;;;;;20.27;9.57;;;;;;;;;;5331730;26;20028;-61
2024/05/07 05:31:10;;;;;;;17.50;9.07;;;;;;;;;;5333259;26;20549;-61
2024/05/07 05:33:35;;;;;;;20.23;9.68;;;;;;;;;;5314572;26;20005;-61
2024/05/07 05:36:01;;;;;;;18.40;9.02;;;;;;;;;;5298719;26;20001;-61
2024/05/07 05:38:26;;;;;;;22.33;9.68;;;;;;;;;;5310319;26;20002;-61
2024/05/07 05:40:54;;;;;;;46.72;11.40;;;;;;;;;;5297428;27;20379;-61
2024/05/07 05:43:19;;;;;;;20.45;10.70;;;;;;;;;;5299038;26;20523;-61
2024/05/07 05:45:45;;;;;;;24.60;11.27;;;;;;;;;;5297378;26;19997;-61
2024/05/07 05:48:10;;;;;;;26.23;11.82;;;;;;;;;;5298759;26;20001;-61
2024/05/07 05:50:36;;;;;;;35.45;13.48;;;;;;;;;;5298269;26;20001;-61
2024/05/07 05:53:02;;;;;;;30.23;12.98;;;;;;;;;;5297130;27;20754;-61
2024/05/07 05:55:27;;;;;;;42.17;15.30;;;;;;;;;;5298023;26;20021;-61
2024/05/07 05:57:53;;;;;;;38.92;14.80;;;;;;;;;;5298653;26;20506;-61
2024/05/07 06:00:18;;;;;;;37.25;14.43;;;;;;;;;;5297919;26;19997;-61
2024/05/07 06:02:43;;;;;;;47.05;16.63;;;;;;;;;;5296806;26;20454;-61
2024/05/07 06:05:09;;;;;;;39.88;15.70;;;;;;;;;;5332486;26;20004;-61
2024/05/07 06:07:36;;;;;;;47.60;17.65;;;;;;;;;;5300734;26;20263;-61
2024/05/07 06:10:01;;;;;;;43.85;17.92;;;;;;;;;;5298108;26;20025;-61
2024/05/07 06:12:27;;;;;;;49.13;18.17;;;;;;;;;;5307851;26;20031;-61
2024/05/07 06:14:52;;;;;;;53.47;18.00;;;;;;;;;;5331798;26;21239;-62
2024/05/07 06:17:17;;;;;;;45.30;19.08;;;;;;;;;;5297155;26;20019;-61
2024/05/07 06:19:43;;;;;;;50.42;18.80;;;;;;;;;;5281507;27;19994;-61
2024/05/07 06:22:08;;;;;;;56.13;20.35;;;;;;;;;;5283253;26;20114;-61
2024/05/07 06:24:33;;;;;;;51.08;21.65;;;;;;;;;;5315733;26;20008;-61
2024/05/07 06:26:59;;;;;;;52.03;21.10;;;;;;;;;;5305715;26;20002;-61
2024/05/07 06:29:24;;;;;;;51.22;22.27;;;;;;;;;;5294143;26;20024;-61
2024/05/07 06:31:49;;;;;;;50.47;20.52;;;;;;;;;;5295961;27;20057;-61
2024/05/07 06:34:15;;;;;;;40.75;19.23;;;;;;;;;;5285664;26;20277;-61
2024/05/07 06:36:40;;;;;;;47.50;20.55;;;;;;;;;;5299584;26;20005;-61
2024/05/07 06:39:07;;;;;;;51.03;21.20;;;;;;;;;;5300258;26;20109;-61
2024/05/07 06:41:32;;;;;;;44.22;20.20;;;;;;;;;;5312409;26;20788;-61
2024/05/07 06:43:57;;;;;;;42.40;20.10;;;;;;;;;;5299630;26;20550;-62
2024/05/07 06:46:23;;;;;;;42.25;19.20;;;;;;;;;;5300342;26;20565;-61
2024/05/07 06:48:48;;;;;;;39.08;18.90;;;;;;;;;;5296537;26;21011;-61
2024/05/07 06:51:13;;;;;;;42.75;19.73;;;;;;;;;;5300438;27;20097;-61
2024/05/07 06:53:40;;;;;;;38.28;18.00;;;;;;;;;;5313896;26;20005;-61
2024/05/07 06:56:06;;;;;;;37.13;19.30;;;;;;;;;;5299358;26;20012;-61
2024/05/07 06:58:31;;;;;;;37.88;18.65;;;;;;;;;;5296932;26;20002;-61
2024/05/07 07:00:57;;;;;;;35.88;18.25;;;;;;;;;;5298981;26;20989;-61
2024/05/07 07:03:22;;;;;;;41.15;18.63;;;;;;;;;;5294720;26;19998;-61
2024/05/07 07:05:49;;;;;;;45.65;21.02;;;;;;;;;;5297968;26;20014;-61
2024/05/07 07:08:15;;;;;;;44.75;20.85;;;;;;;;;;5297838;26;20009;-61
2024/05/07 07:10:43;;;;;;;56.63;23.98;;;;;;;;;;5296813;26;19998;-61
2024/05/07 07:13:09;;;;;;;52.63;23.15;;;;;;;;;;5298546;26;20452;-61
2024/05/07 07:15:34;;;;;;;62.40;26.35;;;;;;;;;;5294318;26;20008;-60
2024/05/07 07:17:59;;;;;;;64.90;26.48;;;;;;;;;;5297188;26;20013;-61
2024/05/07 07:20:26;;;;;;;65.10;26.27;;;;;;;;;;5298863;26;19997;-61
2024/05/07 07:22:52;;;;;;;72.68;27.92;;;;;;;;;;5300422;26;20001;-61
2024/05/07 07:25:17;;;;;;;72.50;29.05;;;;;;;;;;5299493;26;20005;-62
2024/05/07 07:27:42;;;;;;;65.65;26.45;;;;;;;;;;5299753;26;19997;-61
2024/05/07 07:30:08;;;;;;;74.22;28.17;;;;;;;;;;5293894;26;20013;-61
2024/05/07 07:32:34;;;;;;;70.90;27.13;;;;;;;;;;5299200;26;20071;-61
2024/05/07 07:34:59;;;;;;;77.78;28.90;;;;;;;;;;5298747;26;20001;-61
2024/05/07 07:37:25;;;;;;;86.63;30.77;;;;;;;;;;5285291;26;20049;-62
2024/05/07 07:39:51;;;;;;;87.65;31.63;;;;;;;;;;5291058;26;20080;-61
2024/05/07 07:42:17;;;;;;;93.20;32.40;;;;;;;;;;5295069;26;20014;-61
2024/05/07 07:44:42;;;;;;;87.20;31.13;;;;;;;;;;5297957;26;20016;-61
2024/05/07 07:47:07;;;;;;;77.13;29.83;;;;;;;;;;5294852;26;20005;-61
2024/05/07 07:49:33;;;;;;;84.18;30.77;;;;;;;;;;5293402;26;20644;-61
2024/05/07 07:51:58;;;;;;;76.18;29.83;;;;;;;;;;5300275;26;20357;-61
2024/05/07 07:54:25;;;;;;;84.57;31.35;;;;;;;;;;5288700;26;20009;-61
2024/05/07 07:56:51;;;;;;;80.55;29.00;;;;;;;;;;5293384;26;20460;-61
2024/05/07 07:59:16;;;;;;;78.65;30.50;;;;;;;;;;5283964;26;20088;-61
2024/05/07 08:01:41;;;;;;;79.00;31.77;;;;;;;;;;5293698;26;20004;-61
2024/05/07 08:04:07;;;;;;;79.47;30.55;;;;;;;;;;5287759;26;20021;-61
2024/05/07 08:06:37;;;;;;;80.80;30.58;;;;;;;;;;5293790;26;20096;-60
2024/05/07 08:09:02;;;;;;;70.05;28.30;;;;;;;;;;5324598;26;20014;-61
2024/05/07 08:11:28;;;;;;;68.38;28.00;;;;;;;;;;5307747;26;20012;-62
2024/05/07 08:13:53;;;;;;;63.60;27.45;;;;;;;;;;5310325;26;20001;-61
2024/05/07 08:16:19;;;;;;;69.47;28.27;;;;;;;;;;5304953;26;20024;-62
2024/05/07 08:18:44;;;;;;;68.72;28.20;;;;;;;;;;5330767;26;20075;-62
2024/05/07 08:21:09;;;;;;;61.25;25.58;;;;;;;;;;5299254;26;20006;-61
2024/05/07 08:23:35;;;;;;;59.20;25.33;;;;;;;;;;5306065;26;20217;-62
2024/05/07 08:26:00;;;;;;;60.72;24.67;;;;;;;;;;5328482;26;19997;-61
2024/05/07 08:28:26;;;;;;;62.25;26.90;;;;;;;;;;5323385;26;20336;-61
2024/05/07 08:30:51;;;;;;;55.65;23.23;;;;;;;;;;5294873;26;20108;-61
2024/05/07 08:33:22;;;;;;;58.20;23.73;;;;;;;;;;5288180;27;20013;-61
2024/05/07 08:35:47;;;;;;;58.60;24.40;;;;;;;;;;5292812;26;20002;-61
2024/05/07 08:38:13;;;;;;;54.05;22.98;;;;;;;;;;5315225;26;20024;-61
2024/05/07 08:40:39;;;;;;;48.60;21.42;;;;;;;;;;5313045;26;19994;-61
2024/05/07 08:43:05;;;;;;;52.88;22.95;;;;;;;;;;5299566;26;20008;-61
2024/05/07 08:45:32;;;;;;;40.90;18.58;;;;;;;;;;5335044;26;20009;-61
2024/05/07 08:48:02;;;;;;;41.90;19.23;;;;;;;;;;5301551;26;20436;-61
2024/05/07 08:50:27;;;;;;;39.88;18.75;;;;;;;;;;5325808;26;20010;-61
2024/05/07 08:52:54;;;;;;;39.03;17.52;;;;;;;;;;5316880;26;20537;-61
2024/05/07 08:55:21;;;;;;;40.33;17.05;;;;;;;;;;5298291;26;19997;-61
2024/05/07 08:57:47;;;;;;;35.97;17.10;;;;;;;;;;5291644;26;20002;-61
2024/05/07 09:00:14;;;;;;;41.65;17.45;;;;;;;;;;5296040;26;20016;-61
2024/05/07 09:02:40;;;;;;;36.78;17.90;;;;;;;;;;5299807;26;20002;-61
2024/05/07 09:05:05;;;;;;;44.72;20.17;;;;;;;;;;5299401;26;20550;-61
2024/05/07 09:07:31;;;;;;;42.78;19.25;;;;;;;;;;5299081;26;20017;-62
2024/05/07 09:09:57;;;;;;;45.40;20.48;;;;;;;;;;5299664;26;20343;-61
2024/05/07 09:12:22;;;;;;;41.63;19.92;;;;;;;;;;5300859;26;20460;-61
2024/05/07 09:14:51;;;;;;;38.53;18.17;;;;;;;;;;5299275;26;20369;-62
2024/05/07 09:17:16;;;;;;;37.97;17.88;;;;;;;;;;5321864;26;19997;-61
2024/05/07 09:19:42;;;;;;;35.38;16.45;;;;;;;;;;5320880;26;20016;-63
2024/05/07 09:22:15;;;;;;;34.50;16.48;;;;;;;;;;5307973;26;20065;-63
2024/05/07 09:24:44;;;;;;;36.00;15.77;;;;;;;;;;5299515;27;20012;-63
2024/05/07 09:27:09;;;;;;;28.13;14.45;;;;;;;;;;5329807;26;20009;-64
2024/05/07 09:29:35;;;;;;;26.02;12.02;;;;;;;;;;5296999;27;20101;-63
2024/05/07 09:32:01;;;;;;;27.30;12.80;;;;;;;;;;5300384;26;20096;-63
2024/05/07 09:34:31;;;;;;;30.85;13.63;;;;;;;;;;5291362;26;19998;-63
2024/05/07 09:37:00;;;;;;;29.83;13.80;;;;;;;;;;5298761;26;20005;-63
2024/05/07 09:39:31;;;;;;;31.80;15.13;;;;;;;;;;5296810;27;20375;-63
2024/05/07 09:42:00;;;;;;;32.83;15.32;;;;;;;;;;5299243;26;20444;-62
2024/05/07 09:44:32;;;;;;;35.53;17.38;;;;;;;;;;5299305;26;20012;-63
2024/05/07 09:47:00;;;;;;;36.25;17.02;;;;;;;;;;5299225;26;20001;-63
2024/05/07 09:49:27;;;;;;;41.10;18.85;;;;;;;;;;5297359;26;20053;-63
2024/05/07 09:51:56;;;;;;;36.17;17.45;;;;;;;;;;5290263;26;20001;-65
2024/05/07 09:54:22;;;;;;;37.55;18.58;;;;;;;;;;5292691;26;19998;-63
2024/05/07 09:56:48;;;;;;;39.13;19.23;;;;;;;;;;5294895;26;20009;-63
2024/05/07 09:59:15;;;;;;;44.00;20.52;;;;;;;;;;5298215;26;20009;-63
2024/05/07 10:01:41;;;;;;;37.63;18.65;;;;;;;;;;5314997;26;20013;-63
2024/05/07 10:04:06;;;;;;;39.33;19.00;;;;;;;;;;5318575;26;20002;-63
2024/05/07 10:06:32;;;;;;;40.05;19.83;;;;;;;;;;5326640;26;20012;-63
2024/05/07 10:08:57;;;;;;;38.85;20.05;;;;;;;;;;5325834;26;20001;-63
2024/05/07 10:11:25;;;;;;;43.53;21.48;;;;;;;;;;5332609;26;20559;-63
2024/05/07 10:13:59;;;;;;;38.63;20.45;;;;;;;;;;5313803;26;20010;-63
2024/05/07 10:16:28;;;;;;;;;;;;;;;;;;5306013;26;20005;-63
2024/05/07 10:18:58;;;;;;;36.55;17.98;;;;;;;;;;5320508;26;19926;-64
2024/05/07 10:21:31;;;;;;;37.63;19.65;;;;;;;;;;5324453;26;20004;-62
2024/05/07 10:24:10;;;;;;;38.20;18.08;;;;;;;;;;5329842;26;20011;-62
2024/05/07 10:26:36;;;;;;;39.15;18.83;;;;;;;;;;5329736;26;20001;-63
2024/05/07 10:29:04;;;;;;;32.00;17.65;;;;;;;;;;5331833;26;20074;-62
2024/05/07 10:31:30;;;;;;;32.47;17.83;;;;;;;;;;5334347;26;19993;-62
2024/05/07 10:33:58;;;;;;;33.28;17.30;;;;;;;;;;5329908;26;20016;-62
2024/05/07 10:36:30;;;;;;;31.13;16.67;;;;;;;;;;5296866;26;19998;-62
2024/05/07 10:38:56;;;;;;;32.67;18.13;;;;;;;;;;5296995;26;20013;-62
2024/05/07 10:41:22;;;;;;;33.90;18.20;;;;;;;;;;5292471;26;20011;-63
2024/05/07 10:43:48;;;;;;;29.23;15.82;;;;;;;;;;5298829;26;19997;-64
2024/05/07 10:46:17;;;;;;;30.02;16.27;;;;;;;;;;5295004;26;19997;-66
2024/05/07 10:48:43;;;;;;;32.00;16.75;;;;;;;;;;5297236;26;19997;-64
2024/05/07 10:51:08;;;;;;;31.80;17.10;;;;;;;;;;5327304;26;20029;-64
2024/05/07 10:53:34;;;;;;;29.15;15.02;;;;;;;;;;5303716;26;20005;-64
2024/05/07 10:55:59;;;;;;;25.27;13.82;;;;;;;;;;5301468;26;20406;-64
2024/05/07 10:58:25;;;;;;;27.83;14.88;;;;;;;;;;5298277;26;20001;-62
2024/05/07 11:00:50;;;;;;;25.40;14.18;;;;;;;;;;5284872;26;20053;-62
2024/05/07 11:03:16;;;;;;;25.23;14.55;;;;;;;;;;5332060;26;20001;-62
2024/05/07 11:05:42;;;;;;;24.75;13.55;;;;;;;;;;5303295;26;20001;-62
2024/05/07 11:08:07;;;;;;;33.40;13.20;;;;;;;;;;5297938;26;19997;-62
2024/05/07 11:10:33;;;;;;;25.70;14.52;;;;;;;;;;5296380;27;20016;-63
2024/05/07 11:12:58;;;;;;;24.90;14.15;;;;;;;;;;5295292;26;20092;-62
2024/05/07 11:15:23;;;;;;;26.27;15.30;;;;;;;;;;5299391;26;20323;-62
2024/05/07 11:17:53;;;;;;;26.65;13.65;;;;;;;;;;5294795;26;20735;-62
2024/05/07 11:20:18;;;;;;;28.83;13.88;;;;;;;;;;5299190;26;20060;-62
2024/05/07 11:22:45;;;;;;;23.02;13.40;;;;;;;;;;5295743;26;20017;-63
2024/05/07 11:25:12;;;;;;;20.75;12.55;;;;;;;;;;5278558;27;20006;-63
2024/05/07 11:27:37;;;;;;;20.33;12.15;;;;;;;;;;5297088;26;19998;-62
2024/05/07 11:30:04;;;;;;;19.23;12.05;;;;;;;;;;5298315;26;20008;-62
2024/05/07 11:32:29;;;;;;;19.35;12.25;;;;;;;;;;5324137;26;20087;-63
2024/05/07 11:34:54;;;;;;;18.67;12.07;;;;;;;;;;5315248;26;20021;-63
2024/05/07 11:37:20;;;;;;;21.38;13.10;;;;;;;;;;5298080;26;19998;-63
2024/05/07 11:39:45;;;;;;;21.40;12.95;;;;;;;;;;5298387;26;20014;-63
2024/05/07 11:42:11;;;;;;;20.88;12.43;;;;;;;;;;5298893;26;20096;-63
2024/05/07 11:44:37;;;;;;;19.88;12.10;;;;;;;;;;5299058;26;20005;-63
2024/05/07 11:47:03;;;;;;;22.05;13.35;;;;;;;;;;5326339;26;20471;-63
2024/05/07 11:49:28;;;;;;;20.42;12.57;;;;;;;;;;5322107;26;20012;-63
2024/05/07 11:51:54;;;;;;;22.65;10.60;;;;;;;;;;5299719;26;20082;-63
2024/05/07 11:54:19;;;;;;;19.88;11.38;;;;;;;;;;5301355;27;20010;-63
2024/05/07 11:56:44;;;;;;;19.10;11.27;;;;;;;;;;5302694;26;20485;-63
2024/05/07 11:59:10;;;;;;;18.10;11.13;;;;;;;;;;5300264;26;19997;-63
2024/05/07 12:01:36;;;;;;;17.73;11.23;;;;;;;;;;5297524;27;20586;-63
2024/05/07 12:04:01;;;;;;;20.20;11.55;;;;;;;;;;5301548;26;20463;-63
2024/05/07 12:06:26;;;;;;;19.02;11.70;;;;;;;;;;5286692;27;20012;-63
2024/05/07 12:08:54;;;;;;;20.38;12.05;;;;;;;;;;5301751;26;20454;-63
2024/05/07 12:11:20;;;;;;;25.73;11.35;;;;;;;;;;5299607;26;20001;-63
2024/05/07 12:13:45;;;;;;;20.80;11.93;;;;;;;;;;5299122;26;20748;-63
2024/05/07 12:16:12;;;;;;;21.95;11.55;;;;;;;;;;5301522;26;20444;-63
2024/05/07 12:18:37;;;;;;;20.80;11.57;;;;;;;;;;5300571;27;19998;-63
2024/05/07 12:21:03;;;;;;;18.75;10.73;;;;;;;;;;5301761;26;20478;-63
2024/05/07 12:26:12;;;;;;;21.35;12.10;;;;;;;;;;5319818;26;20465;-62
2024/05/07 12:28:39;;;;;;;24.10;12.63;;;;;;;;;;5309980;26;20002;-62
2024/05/07 12:31:04;;;;;;;26.10;13.10;;;;;;;;;;5305972;26;19997;-62
2024/05/07 12:33:30;;;;;;;21.08;12.07;;;;;;;;;;5332170;26;20220;-62
2024/05/07 12:35:56;;;;;;;22.92;13.02;;;;;;;;;;5303762;26;20001;-63
2024/05/07 12:38:21;;;;;;;23.63;13.95;;;;;;;;;;5297194;27;20994;-62
2024/05/07 12:40:47;;;;;;;25.30;14.52;;;;;;;;;;5299673;26;20013;-62
2024/05/07 12:43:12;;;;;;;21.90;13.70;;;;;;;;;;5320338;26;20319;-62
2024/05/07 12:45:38;;;;;;;28.48;14.80;;;;;;;;;;5336705;26;20007;-62
2024/05/07 12:48:06;;;;;;;24.98;15.18;;;;;;;;;;5335396;26;20048;-62
2024/05/07 12:50:32;;;;;;;29.02;15.68;;;;;;;;;;5320883;26;20004;-62
2024/05/07 12:52:57;;;;;;;26.73;14.43;;;;;;;;;;5314966;26;20009;-62
2024/05/07 12:55:23;;;;;;;27.90;15.70;;;;;;;;;;5299721;26;20442;-63
2024/05/07 12:57:49;;;;;;;27.05;15.75;;;;;;;;;;5300822;26;19993;-62
2024/05/07 13:00:14;;;;;;;31.33;16.52;;;;;;;;;;5290662;26;20013;-63
2024/05/07 13:02:40;;;;;;;27.02;15.07;;;;;;;;;;5298841;26;20025;-66
2024/05/07 13:05:06;;;;;;;27.65;16.25;;;;;;;;;;5298633;26;19997;-72
2024/05/07 13:07:32;;;;;;;28.15;17.23;;;;;;;;;;5300733;26;20001;-72
2024/05/07 13:09:58;;;;;;;29.40;16.58;;;;;;;;;;5299053;26;20026;-72
2024/05/07 13:12:24;;;;;;;28.45;16.25;;;;;;;;;;5298711;27;20080;-72
2024/05/07 13:14:49;;;;;;;29.60;16.52;;;;;;;;;;5301350;26;20595;-72
2024/05/07 13:17:14;;;;;;;28.63;17.27;;;;;;;;;;5301533;26;19998;-71
2024/05/07 13:19:40;;;;;;;29.85;18.02;;;;;;;;;;5300930;26;20002;-72
2024/05/07 13:22:05;;;;;;;29.70;17.75;;;;;;;;;;5300003;26;20014;-72
2024/05/07 13:24:31;;;;;;;39.30;27.10;;;;;;;;;;5300732;26;20001;-72
2024/05/07 13:26:56;;;;;;;33.13;16.63;;;;;;;;;;5312259;26;20011;-72
2024/05/07 13:29:21;;;;;;;30.00;16.67;;;;;;;;;;5300680;26;19994;-72
2024/05/07 13:31:48;;;;;;;28.15;17.35;;;;;;;;;;5300678;26;20019;-71
2024/05/07 13:34:14;;;;;;;29.05;16.55;;;;;;;;;;5291310;27;19998;-72
2024/05/07 13:36:40;;;;;;;35.95;17.02;;;;;;;;;;5300718;26;20071;-71
2024/05/07 13:39:05;;;;;;;30.75;18.50;;;;;;;;;;5298380;27;20013;-72
2024/05/07 13:41:30;;;;;;;33.45;18.48;;;;;;;;;;5299844;26;20079;-71
2024/05/07 13:43:56;;;;;;;34.45;19.13;;;;;;;;;;5324342;26;20029;-71
2024/05/07 13:46:21;;;;;;;43.78;20.02;;;;;;;;;;5325608;26;20459;-72
2024/05/07 13:48:47;;;;;;;32.05;18.60;;;;;;;;;;5299201;26;20591;-72
2024/05/07 13:51:12;;;;;;;32.35;19.70;;;;;;;;;;5293913;27;20009;-72
2024/05/07 13:53:37;;;;;;;37.17;19.25;;;;;;;;;;5316285;26;20398;-71
2024/05/07 13:56:03;;;;;;;35.30;20.88;;;;;;;;;;5335106;26;19993;-72
2024/05/07 13:58:30;;;;;;;35.03;20.45;;;;;;;;;;5323906;26;20002;-71
2024/05/07 14:00:56;;;;;;;34.75;19.98;;;;;;;;;;5298812;26;20053;-71
2024/05/07 14:03:21;;;;;;;33.20;20.00;;;;;;;;;;5297971;26;19998;-71
2024/05/07 14:05:47;;;;;;;34.58;21.67;;;;;;;;;;5299992;26;20433;-72
2024/05/07 14:08:12;;;;;;;36.08;20.77;;;;;;;;;;5298190;26;20009;-71
2024/05/07 14:10:37;;;;;;;30.70;19.48;;;;;;;;;;5298243;26;20107;-71
2024/05/07 14:13:03;;;;;;;31.05;19.80;;;;;;;;;;5290062;26;20050;-71
2024/05/07 14:15:28;;;;;;;34.42;19.63;;;;;;;;;;5289622;26;20870;-71